Time;durP1;ratioP1;P1;durP2;ratioP2;P2;SDS_P1;SDS_P2;PMS_P1;PMS_P2;Temp;Humidity;BMP_temperature;BMP_pressure;BME280_temperature;BME280_humidity;BME280_pressure;Samples;Min_cycle;Max_cycle;Signal;HPM_P1;HPM_P2
2022/10/14 00:00:32;;;;;;;37.72;21.83;;;12.50;99.90;;;;;;5065050;28;20032;-79
2022/10/14 00:02:58;;;;;;;40.40;22.38;;;12.70;99.90;;;;;;5092410;28;20184;-80
2022/10/14 00:05:24;;;;;;;39.25;23.02;;;12.40;99.90;;;;;;5083800;28;20081;-79
2022/10/14 00:07:50;;;;;;;38.25;22.77;;;12.30;99.90;;;;;;5061822;28;20025;-81
2022/10/14 00:10:16;;;;;;;62.33;24.50;;;12.60;99.90;;;;;;5050294;28;20036;-79
2022/10/14 00:12:41;;;;;;;38.05;22.80;;;12.60;99.90;;;;;;5071966;28;20315;-80
2022/10/14 00:15:08;;;;;;;62.25;24.85;;;12.50;99.90;;;;;;5081118;28;20040;-80
2022/10/14 00:17:33;;;;;;;35.65;21.33;;;12.20;99.90;;;;;;5050612;28;20039;-79
2022/10/14 00:19:59;;;;;;;33.78;20.48;;;12.20;99.90;;;;;;5100949;28;20040;-78
2022/10/14 00:22:25;;;;;;;33.67;20.35;;;12.20;99.90;;;;;;5067155;28;20024;-78
2022/10/14 00:24:51;;;;;;;148.02;23.23;;;12.20;99.90;;;;;;5082965;28;20042;-79
2022/10/14 00:27:17;;;;;;;338.83;28.83;;;12.20;99.90;;;;;;5077780;28;20028;-80
2022/10/14 00:29:42;;;;;;;244.50;24.98;;;12.10;99.90;;;;;;5086813;28;20214;-80
2022/10/14 00:32:08;;;;;;;228.60;23.85;;;12.40;99.90;;;;;;5051884;28;20044;-78
2022/10/14 00:34:35;;;;;;;191.93;23.60;;;12.40;99.90;;;;;;5067410;28;20032;-79
2022/10/14 00:37:00;;;;;;;196.65;21.42;;;12.40;99.90;;;;;;5088491;28;20071;-79
2022/10/14 00:39:26;;;;;;;158.60;22.33;;;12.40;99.90;;;;;;5079761;28;20314;-78
2022/10/14 00:41:52;;;;;;;47.58;18.08;;;12.40;99.90;;;;;;5082369;28;20024;-79
2022/10/14 00:44:20;;;;;;;108.07;21.23;;;12.10;99.90;;;;;;5086730;28;20073;-78
2022/10/14 00:46:47;;;;;;;189.43;23.00;;;12.30;99.90;;;;;;5088186;28;20095;-78
2022/10/14 00:49:22;;;;;;;146.00;22.90;;;12.20;99.90;;;;;;5087227;28;20059;-79
2022/10/14 00:51:55;;;;;;;139.18;21.35;;;12.20;99.90;;;;;;5084021;28;20037;-79
2022/10/14 00:54:27;;;;;;;133.45;21.60;;;12.40;99.90;;;;;;5086661;28;20345;-79
2022/10/14 00:56:52;;;;;;;54.88;17.42;;;12.20;99.90;;;;;;5078180;28;20027;-78
2022/10/14 00:59:19;;;;;;;51.00;17.17;;;12.00;99.90;;;;;;5099848;28;20088;-78
2022/10/14 01:01:47;;;;;;;49.97;16.35;;;12.10;99.90;;;;;;5086817;28;20314;-78
2022/10/14 01:04:13;;;;;;;199.30;25.48;;;12.20;99.90;;;;;;5069441;28;20038;-79
2022/10/14 01:06:41;;;;;;;150.48;21.02;;;12.00;99.90;;;;;;5068329;28;20036;-78
2022/10/14 01:09:15;;;;;;;174.60;22.80;;;12.00;99.90;;;;;;5085931;28;20180;-79
2022/10/14 01:12:09;;;;;;;58.60;16.52;;;12.20;99.90;;;;;;5092990;28;20107;-79
2022/10/14 01:14:40;;;;;;;168.23;20.17;;;12.10;99.90;;;;;;5095789;28;20124;-79
2022/10/14 01:17:36;;;;;;;202.68;22.05;;;11.90;99.90;;;;;;5106241;28;20290;-79
2022/10/14 01:20:39;;;;;;;92.72;17.17;;;12.10;99.90;;;;;;5100166;28;20032;-79
2022/10/14 01:23:40;;;;;;;36.05;15.05;;;11.80;99.90;;;;;;5082326;28;20056;-79
2022/10/14 01:26:33;;;;;;;154.40;20.50;;;12.10;99.90;;;;;;5101001;28;20044;-79
2022/10/14 01:29:24;;;;;;;45.33;14.75;;;12.10;99.90;;;;;;5080511;28;20036;-80
2022/10/14 01:32:01;;;;;;;184.43;18.40;;;11.90;99.90;;;;;;5095992;28;20032;-79
2022/10/14 01:34:40;;;;;;;171.27;18.55;;;11.90;99.90;;;;;;5075069;28;20043;-80
2022/10/14 01:37:57;;;;;;;121.78;18.45;;;11.70;99.90;;;;;;5083733;28;20119;-79
2022/10/14 01:40:36;;;;;;;161.90;16.00;;;11.90;99.90;;;;;;5077871;28;20627;-78
2022/10/14 01:43:04;;;;;;;117.38;16.20;;;11.80;99.90;;;;;;5102546;28;20205;-79
2022/10/14 01:45:33;;;;;;;177.82;20.17;;;11.90;99.90;;;;;;5084496;28;20036;-79
2022/10/14 01:48:00;;;;;;;156.50;17.95;;;11.80;99.90;;;;;;5115661;28;20043;-79
2022/10/14 01:50:28;;;;;;;136.38;18.10;;;11.80;99.90;;;;;;5084952;28;20040;-80
2022/10/14 01:53:00;;;;;;;172.23;18.17;;;11.60;99.90;;;;;;5091660;28;20094;-79
2022/10/14 01:55:31;;;;;;;174.13;17.77;;;11.70;99.90;;;;;;5083035;28;20059;-80
2022/10/14 01:57:58;;;;;;;177.30;18.40;;;11.70;99.90;;;;;;5083306;28;20032;-80
2022/10/14 02:00:24;;;;;;;161.15;18.27;;;11.50;99.90;;;;;;5096098;28;20020;-80
2022/10/14 02:02:50;;;;;;;157.50;17.05;;;11.80;99.90;;;;;;5083513;28;20034;-81
2022/10/14 02:05:19;;;;;;;166.80;16.48;;;11.50;99.90;;;;;;5049562;28;20290;-81
2022/10/14 02:07:51;;;;;;;163.07;16.15;;;11.70;99.90;;;;;;5097324;28;20135;-80
2022/10/14 02:10:36;;;;;;;174.70;16.98;;;11.70;99.90;;;;;;5085998;28;20092;-79
2022/10/14 02:13:21;;;;;;;154.10;16.65;;;11.40;99.90;;;;;;5080253;28;20058;-79
2022/10/14 02:16:18;;;;;;;82.93;15.35;;;11.60;99.90;;;;;;5101941;28;20040;-80
2022/10/14 02:18:53;;;;;;;111.95;14.23;;;11.70;99.90;;;;;;5086425;28;20067;-79
2022/10/14 02:21:24;;;;;;;60.17;11.85;;;11.30;99.90;;;;;;5084867;28;20032;-77
2022/10/14 02:24:00;;;;;;;66.38;12.20;;;11.30;99.90;;;;;;5072172;28;20027;-77
2022/10/14 02:26:26;;;;;;;49.92;12.00;;;11.30;99.90;;;;;;5072712;28;20104;-77
2022/10/14 02:28:54;;;;;;;115.53;14.43;;;11.20;99.90;;;;;;5099922;28;20214;-77
2022/10/14 02:31:21;;;;;;;86.97;13.00;;;11.10;99.90;;;;;;5067662;28;20032;-77
2022/10/14 02:33:52;;;;;;;140.80;14.45;;;11.30;99.90;;;;;;5081565;28;20047;-77
2022/10/14 02:36:22;;;;;;;104.00;13.88;;;11.00;99.90;;;;;;5102130;28;20048;-77
2022/10/14 02:38:49;;;;;;;99.93;14.07;;;11.00;99.90;;;;;;5084837;28;20049;-77
2022/10/14 02:41:18;;;;;;;120.70;13.68;;;11.00;99.90;;;;;;5078643;28;20031;-78
2022/10/14 02:43:45;;;;;;;114.50;14.60;;;11.20;99.90;;;;;;5072376;28;20031;-79
2022/10/14 02:46:10;;;;;;;90.85;12.50;;;11.10;99.90;;;;;;5084868;28;20028;-79
2022/10/14 02:48:37;;;;;;;54.00;11.50;;;11.20;99.90;;;;;;5100296;28;20112;-80
2022/10/14 02:51:03;;;;;;;98.93;12.32;;;11.20;99.90;;;;;;5086164;28;20039;-78
2022/10/14 02:53:29;;;;;;;133.80;14.07;;;11.10;99.90;;;;;;5100701;28;20031;-80
2022/10/14 02:55:55;;;;;;;59.10;10.57;;;11.10;99.90;;;;;;5097095;28;20055;-79
2022/10/14 02:58:21;;;;;;;165.05;13.40;;;11.00;99.90;;;;;;5049114;28;20021;-79
2022/10/14 03:00:50;;;;;;;117.55;12.57;;;10.90;99.90;;;;;;5058815;28;20028;-80
2022/10/14 03:03:16;;;;;;;97.55;11.23;;;11.10;99.90;;;;;;5086726;28;20034;-80
2022/10/14 03:05:42;;;;;;;36.63;9.93;;;11.00;99.90;;;;;;5082555;28;20035;-79
2022/10/14 03:08:07;;;;;;;159.00;13.00;;;11.00;99.90;;;;;;5082771;28;20314;-79
2022/10/14 03:10:33;;;;;;;102.32;12.15;;;10.90;99.90;;;;;;5063244;28;20048;-79
2022/10/14 03:12:59;;;;;;;86.70;10.30;;;10.80;99.90;;;;;;5060144;28;20211;-79
2022/10/14 03:15:25;;;;;;;67.07;9.70;;;11.10;99.90;;;;;;5073017;28;20041;-79
2022/10/14 03:17:50;;;;;;;70.85;10.50;;;11.10;99.90;;;;;;5084008;28;20088;-78
2022/10/14 03:20:16;;;;;;;89.22;10.80;;;11.10;99.90;;;;;;5090565;28;20035;-80
2022/10/14 03:22:42;;;;;;;56.28;9.45;;;10.80;99.90;;;;;;5067927;28;20091;-80
2022/10/14 03:25:08;;;;;;;60.65;9.40;;;10.90;99.90;;;;;;5071557;28;20028;-80
2022/10/14 03:27:33;;;;;;;20.75;7.40;;;11.10;99.90;;;;;;5084476;28;20023;-79
2022/10/14 03:29:59;;;;;;;103.80;10.35;;;10.90;99.90;;;;;;5052907;28;20258;-79
2022/10/14 03:32:25;;;;;;;82.28;10.40;;;10.70;99.90;;;;;;5066683;28;20028;-79
2022/10/14 03:34:50;;;;;;;98.13;11.35;;;10.70;99.90;;;;;;5060553;28;20094;-79
2022/10/14 03:37:19;;;;;;;98.32;10.85;;;10.80;99.90;;;;;;5061623;28;20111;-80
2022/10/14 03:39:45;;;;;;;94.35;11.02;;;11.00;99.90;;;;;;5081938;28;20370;-79
2022/10/14 03:42:10;;;;;;;73.53;9.93;;;10.90;99.90;;;;;;5051205;28;20043;-81
2022/10/14 03:44:36;;;;;;;105.38;11.43;;;10.90;99.90;;;;;;5082438;28;20269;-80
2022/10/14 03:47:02;;;;;;;59.15;9.02;;;11.00;99.90;;;;;;5081377;28;20087;-79
2022/10/14 03:49:28;;;;;;;96.47;10.68;;;11.00;99.90;;;;;;5062854;28;20362;-81
2022/10/14 03:51:53;;;;;;;121.00;12.40;;;10.70;99.90;;;;;;5049711;28;20032;-80
2022/10/14 03:54:19;;;;;;;117.18;11.30;;;10.80;99.90;;;;;;5096610;28;20379;-81
2022/10/14 03:56:45;;;;;;;100.72;10.90;;;10.90;99.90;;;;;;5069246;28;20028;-80
2022/10/14 03:59:13;;;;;;;80.38;9.73;;;10.70;99.90;;;;;;5091506;28;20043;-79
2022/10/14 04:01:38;;;;;;;102.90;11.43;;;10.70;99.90;;;;;;5081624;28;20040;-79
2022/10/14 04:04:04;;;;;;;82.65;10.30;;;11.00;99.90;;;;;;5069377;28;20032;-79
2022/10/14 04:06:33;;;;;;;84.32;10.93;;;10.90;99.90;;;;;;5086990;28;20028;-79
2022/10/14 04:08:59;;;;;;;47.60;9.07;;;10.80;99.90;;;;;;5072272;28;20591;-79
2022/10/14 04:11:24;;;;;;;72.05;10.68;;;10.80;99.90;;;;;;5078380;28;20217;-80
2022/10/14 04:13:50;;;;;;;64.35;11.88;;;11.10;99.90;;;;;;5058117;28;20035;-80
2022/10/14 04:16:15;;;;;;;34.95;8.40;;;10.90;99.90;;;;;;5093303;28;20396;-80
2022/10/14 04:18:41;;;;;;;72.90;10.90;;;11.10;99.90;;;;;;5091119;28;20090;-80
2022/10/14 04:21:10;;;;;;;89.57;11.50;;;11.00;99.90;;;;;;5069555;28;20183;-80
2022/10/14 04:23:35;;;;;;;42.30;9.40;;;10.90;99.90;;;;;;5103883;28;20253;-79
2022/10/14 04:26:08;;;;;;;100.00;12.32;;;11.00;99.90;;;;;;5086618;28;20024;-79
2022/10/14 04:28:35;;;;;;;95.93;12.68;;;11.30;99.90;;;;;;5084875;28;20044;-81
2022/10/14 04:31:01;;;;;;;78.10;12.50;;;11.10;99.90;;;;;;5057806;28;20032;-79
2022/10/14 04:33:27;;;;;;;85.55;12.45;;;11.20;99.90;;;;;;5087263;28;20028;-80
2022/10/14 04:36:02;;;;;;;57.00;11.60;;;11.50;99.90;;;;;;5065854;28;20107;-81
2022/10/14 04:38:28;;;;;;;76.70;12.30;;;11.30;99.90;;;;;;5095719;28;20089;-81
2022/10/14 04:40:54;;;;;;;124.78;14.02;;;11.50;99.90;;;;;;5088902;28;20039;-81
2022/10/14 04:43:20;;;;;;;33.80;9.38;;;11.50;99.90;;;;;;5088529;28;20023;-80
2022/10/14 04:45:46;;;;;;;59.35;10.45;;;11.30;99.90;;;;;;5086995;28;20036;-80
2022/10/14 04:48:12;;;;;;;32.35;8.95;;;11.30;99.90;;;;;;5096347;28;20093;-80
2022/10/14 04:50:38;;;;;;;51.20;10.63;;;11.60;99.90;;;;;;5087701;28;20032;-79
2022/10/14 04:53:03;;;;;;;54.35;11.20;;;11.30;99.90;;;;;;5066839;28;20036;-79
2022/10/14 04:55:29;;;;;;;59.58;13.30;;;11.60;99.90;;;;;;5083972;28;20103;-79
2022/10/14 04:57:55;;;;;;;53.92;11.90;;;11.40;99.90;;;;;;5077072;28;20032;-79
2022/10/14 05:00:20;;;;;;;28.15;10.43;;;11.40;99.90;;;;;;5084233;28;20036;-78
2022/10/14 05:02:46;;;;;;;58.10;12.90;;;11.70;99.90;;;;;;5086750;28;20018;-80
2022/10/14 05:05:13;;;;;;;50.58;12.38;;;11.80;99.90;;;;;;5075373;28;20189;-80
2022/10/14 05:07:40;;;;;;;36.90;11.60;;;11.60;99.90;;;;;;5059404;28;20100;-79
2022/10/14 05:10:08;;;;;;;33.45;10.00;;;11.50;99.90;;;;;;5086300;28;20027;-80
2022/10/14 05:12:35;;;;;;;19.15;7.97;;;11.70;99.90;;;;;;5099679;28;20034;-80
2022/10/14 05:15:04;;;;;;;68.63;10.30;;;11.60;99.90;;;;;;5052529;28;20037;-79
2022/10/14 05:17:36;;;;;;;40.35;7.75;;;12.60;99.90;;;;;;5070892;28;20024;-80
2022/10/14 05:20:02;;;;;;;42.40;9.43;;;11.30;99.90;;;;;;5068776;28;20319;-80
2022/10/14 05:22:28;;;;;;;43.05;9.00;;;11.50;99.90;;;;;;5077744;28;20100;-81
2022/10/14 05:24:54;;;;;;;34.58;7.40;;;11.30;99.90;;;;;;5081140;28;20093;-80
2022/10/14 05:27:19;;;;;;;91.82;9.73;;;11.40;99.90;;;;;;5088204;28;20020;-80
2022/10/14 05:29:45;;;;;;;45.25;7.60;;;11.30;99.90;;;;;;5080180;28;20076;-80
2022/10/14 05:32:11;;;;;;;46.55;7.95;;;11.40;99.90;;;;;;5062404;28;20038;-79
2022/10/14 05:34:37;;;;;;;36.15;8.15;;;10.90;99.90;;;;;;5069799;28;20055;-78
2022/10/14 05:37:02;;;;;;;66.80;10.02;;;11.40;99.90;;;;;;5086931;28;20113;-79
2022/10/14 05:39:28;;;;;;;77.97;9.93;;;11.60;99.90;;;;;;5081079;28;20033;-80
2022/10/14 05:41:54;;;;;;;52.03;9.07;;;11.60;99.90;;;;;;5053495;28;20064;-80
2022/10/14 05:44:19;;;;;;;42.33;8.38;;;11.40;99.90;;;;;;5070764;28;20024;-79
2022/10/14 05:46:45;;;;;;;37.75;8.70;;;11.70;99.90;;;;;;5069960;28;20341;-79
2022/10/14 05:49:11;;;;;;;42.50;9.48;;;11.70;99.90;;;;;;5083842;28;20036;-79
2022/10/14 05:51:37;;;;;;;68.40;10.52;;;11.40;99.90;;;;;;5069880;28;20326;-80
2022/10/14 05:54:03;;;;;;;31.67;8.32;;;11.40;99.90;;;;;;5062156;28;20067;-80
2022/10/14 05:56:31;;;;;;;47.47;9.90;;;11.70;99.90;;;;;;5083543;28;20094;-80
2022/10/14 05:58:57;;;;;;;38.65;9.20;;;11.60;99.90;;;;;;5068898;28;20024;-80
2022/10/14 06:01:23;;;;;;;30.20;7.38;;;11.40;99.90;;;;;;5086484;28;20039;-80
2022/10/14 06:03:50;;;;;;;48.40;10.60;;;11.80;99.90;;;;;;5067204;28;20111;-78
2022/10/14 06:06:16;;;;;;;55.92;10.45;;;11.80;99.90;;;;;;5066722;28;20074;-80
2022/10/14 06:08:42;;;;;;;83.70;11.32;;;11.50;99.90;;;;;;5074264;28;20031;-81
2022/10/14 06:11:08;;;;;;;50.85;9.85;;;11.80;99.90;;;;;;5066949;28;20063;-80
2022/10/14 06:13:34;;;;;;;59.40;11.05;;;11.50;99.90;;;;;;5076477;28;20141;-81
2022/10/14 06:16:05;;;;;;;41.85;10.18;;;11.50;99.90;;;;;;5045696;28;20032;-80
2022/10/14 06:18:32;;;;;;;69.70;11.35;;;11.70;99.90;;;;;;5081061;28;20036;-80
2022/10/14 06:20:57;;;;;;;42.50;10.43;;;11.50;99.90;;;;;;5079856;28;20024;-80
2022/10/14 06:23:23;;;;;;;46.45;10.75;;;11.70;99.90;;;;;;5085483;28;20361;-81
2022/10/14 06:25:49;;;;;;;40.38;10.10;;;11.90;99.90;;;;;;5067010;28;20069;-80
2022/10/14 06:28:15;;;;;;;62.35;12.02;;;11.60;99.90;;;;;;5073129;28;20039;-79
2022/10/14 06:30:40;;;;;;;80.70;12.77;;;11.60;99.90;;;;;;5068243;28;20102;-78
2022/10/14 06:33:06;;;;;;;37.38;10.32;;;11.80;99.90;;;;;;5053227;28;20310;-78
2022/10/14 06:35:32;;;;;;;26.42;9.73;;;11.90;99.90;;;;;;5068945;28;20234;-79
2022/10/14 06:37:58;;;;;;;29.70;9.68;;;11.60;99.90;;;;;;5080535;28;20032;-77
2022/10/14 06:40:24;;;;;;;77.80;12.88;;;11.60;99.90;;;;;;5085425;28;20105;-76
2022/10/14 06:42:51;;;;;;;50.90;12.55;;;11.70;99.90;;;;;;5090536;28;20028;-77
2022/10/14 06:45:16;;;;;;;105.97;14.50;;;11.50;99.90;;;;;;5077169;28;20056;-78
2022/10/14 06:47:42;;;;;;;101.22;14.23;;;11.60;99.90;;;;;;5070674;28;20051;-78
2022/10/14 06:50:08;;;;;;;104.15;15.77;;;11.90;99.90;;;;;;5067877;28;20058;-77
2022/10/14 06:52:34;;;;;;;43.70;11.55;;;11.80;99.90;;;;;;5068460;28;20039;-77
2022/10/14 06:55:00;;;;;;;93.50;13.77;;;11.80;99.90;;;;;;5078807;28;20033;-76
2022/10/14 06:57:25;;;;;;;103.18;15.90;;;11.70;99.90;;;;;;5097465;28;20078;-77
2022/10/14 06:59:51;;;;;;;58.60;14.10;;;11.90;99.90;;;;;;5066199;28;20023;-77
2022/10/14 07:02:17;;;;;;;69.50;14.85;;;11.90;99.90;;;;;;5075857;28;20031;-78
2022/10/14 07:04:42;;;;;;;92.03;14.98;;;11.70;99.90;;;;;;5084924;28;20357;-79
2022/10/14 07:07:09;;;;;;;138.63;16.48;;;11.80;99.90;;;;;;5083245;28;20087;-76
2022/10/14 07:09:35;;;;;;;90.53;17.55;;;11.80;99.90;;;;;;5081184;28;20047;-77
2022/10/14 07:12:00;;;;;;;70.53;14.80;;;11.90;99.90;;;;;;5056791;28;20032;-78
2022/10/14 07:14:26;;;;;;;73.00;16.17;;;12.10;99.90;;;;;;5075425;28;20137;-77
2022/10/14 07:16:52;;;;;;;70.15;16.23;;;11.90;99.90;;;;;;5055245;28;20095;-78
2022/10/14 07:19:18;;;;;;;111.50;19.58;;;12.40;99.90;;;;;;5082582;28;20028;-77
2022/10/14 07:21:46;;;;;;;62.78;14.82;;;12.30;99.90;;;;;;5070312;28;20133;-78
2022/10/14 07:24:13;;;;;;;116.85;18.25;;;11.90;99.90;;;;;;5079902;28;20036;-80
2022/10/14 07:26:38;;;;;;;115.25;18.25;;;12.30;99.90;;;;;;5098415;28;20086;-76
2022/10/14 07:29:05;;;;;;;37.17;12.60;;;12.00;99.90;;;;;;5089321;28;20246;-77
2022/10/14 07:31:31;;;;;;;64.10;16.27;;;12.20;99.90;;;;;;5083106;28;20063;-77
2022/10/14 07:33:58;;;;;;;73.03;16.45;;;12.20;99.90;;;;;;5087524;28;20281;-76
2022/10/14 07:36:24;;;;;;;44.85;13.45;;;12.30;99.90;;;;;;5087888;28;20323;-78
2022/10/14 07:38:49;;;;;;;101.20;18.30;;;12.30;99.90;;;;;;5068686;28;20028;-78
2022/10/14 07:41:21;;;;;;;71.30;16.08;;;12.20;99.90;;;;;;5064275;28;20028;-78
2022/10/14 07:43:49;;;;;;;63.30;16.35;;;11.90;99.90;;;;;;5088005;28;20031;-77
2022/10/14 07:46:28;;;;;;;76.85;17.05;;;12.00;99.90;;;;;;5095289;28;20040;-78
2022/10/14 07:49:03;;;;;;;73.28;17.55;;;12.40;99.90;;;;;;5079281;28;20101;-77
2022/10/14 07:51:29;;;;;;;57.95;16.95;;;12.30;99.90;;;;;;5083812;28;20024;-77
2022/10/14 07:53:57;;;;;;;63.25;16.83;;;12.80;99.90;;;;;;5079498;28;20047;-78
2022/10/14 07:56:23;;;;;;;66.50;16.85;;;12.40;99.90;;;;;;5081498;28;20068;-77
2022/10/14 07:58:49;;;;;;;93.13;18.52;;;12.20;99.90;;;;;;5048855;28;20040;-76
2022/10/14 08:01:17;;;;;;;60.85;17.98;;;12.30;99.90;;;;;;5100030;28;20115;-76
2022/10/14 08:06:30;;;;;;;45.63;16.25;;;12.30;99.90;;;;;;5078000;28;20252;-78
2022/10/14 08:08:55;;;;;;;72.15;18.98;;;12.50;99.90;;;;;;5047278;28;20039;-79
2022/10/14 08:11:27;;;;;;;57.97;17.58;;;12.20;99.90;;;;;;5065825;28;20223;-78
2022/10/14 08:14:24;;;;;;;;;;;;;;;;;;;;;
2022/10/14 08:16:59;;;;;;;64.80;19.50;;;12.60;99.90;;;;;;5089961;28;20032;-77
2022/10/14 08:19:25;;;;;;;50.00;18.48;;;12.10;99.90;;;;;;5077637;28;20067;-78
2022/10/14 08:22:09;;;;;;;56.85;19.58;;;12.70;99.90;;;;;;5078350;28;20249;-76
2022/10/14 08:24:35;;;;;;;57.13;19.48;;;12.50;99.90;;;;;;5078622;28;20035;-77
2022/10/14 08:27:00;;;;;;;56.08;19.60;;;12.30;99.90;;;;;;5061340;28;20036;-76
2022/10/14 08:29:26;;;;;;;53.15;20.00;;;12.30;99.90;;;;;;5066105;28;20031;-78
2022/10/14 08:32:16;;;;;;;51.05;18.73;;;11.90;99.90;;;;;;5061206;28;20322;-79
2022/10/14 08:34:42;;;;;;;65.75;20.58;;;12.20;99.90;;;;;;5069813;28;20048;-78
2022/10/14 08:37:11;;;;;;;55.80;21.90;;;12.80;99.90;;;;;;5073770;28;20151;-76
2022/10/14 08:39:43;;;;;;;54.63;20.80;;;12.90;99.90;;;;;;5096070;28;20044;-77
2022/10/14 08:42:15;;;;;;;54.05;20.88;;;11.60;99.90;;;;;;5095625;28;20096;-79
2022/10/14 08:44:43;;;;;;;35.70;17.75;;;12.90;99.90;;;;;;5081550;28;20028;-78
2022/10/14 08:47:14;;;;;;;49.72;21.48;;;12.90;99.90;;;;;;5081941;28;20044;-77
2022/10/14 08:49:56;;;;;;;51.05;20.60;;;12.70;99.90;;;;;;5087684;28;20032;-78
2022/10/14 08:52:30;;;;;;;45.28;19.50;;;12.60;99.90;;;;;;5104473;28;20036;-76
2022/10/14 08:55:14;;;;;;;39.42;19.45;;;12.90;99.90;;;;;;5091472;28;20047;-79
2022/10/14 08:57:55;;;;;;;44.55;19.27;;;12.80;99.90;;;;;;5083992;28;20085;-78
2022/10/14 09:00:21;;;;;;;47.55;20.95;;;13.00;99.90;;;;;;5082489;28;20028;-78
2022/10/14 09:02:50;;;;;;;41.75;20.02;;;12.70;99.90;;;;;;5096372;28;20039;-78
2022/10/14 09:05:24;;;;;;;53.58;22.13;;;12.90;99.90;;;;;;5093455;28;20322;-77
2022/10/14 09:07:55;;;;;;;37.50;19.33;;;13.00;99.90;;;;;;5099257;28;20036;-80
2022/10/14 09:10:31;;;;;;;41.45;21.02;;;13.10;99.90;;;;;;5099756;28;20036;-77
2022/10/14 09:13:17;;;;;;;49.42;21.65;;;13.00;99.90;;;;;;5097358;28;20154;-79
2022/10/14 09:15:57;;;;;;;42.42;20.38;;;13.20;99.90;;;;;;5092064;28;20071;-77
2022/10/14 09:18:26;;;;;;;46.13;21.77;;;13.10;99.90;;;;;;5097213;28;20085;-80
2022/10/14 09:20:53;;;;;;;42.90;20.55;;;13.10;99.90;;;;;;5080419;28;20073;-77
2022/10/14 09:23:24;;;;;;;44.83;19.80;;;13.30;99.90;;;;;;5084530;28;20036;-77
2022/10/14 09:26:00;;;;;;;35.20;17.65;;;13.10;99.90;;;;;;5099967;28;20196;-76
2022/10/14 09:28:40;;;;;;;34.28;18.17;;;13.10;99.90;;;;;;5085522;28;20024;-77
2022/10/14 09:31:10;;;;;;;39.30;19.02;;;13.20;99.90;;;;;;5100135;28;20072;-78
2022/10/14 09:33:40;;;;;;;32.75;17.75;;;13.30;99.90;;;;;;5091852;28;20318;-78
2022/10/14 09:36:17;;;;;;;38.03;17.98;;;13.20;99.90;;;;;;5082280;28;20053;-80
2022/10/14 09:38:46;;;;;;;40.38;19.50;;;13.30;99.90;;;;;;5084356;28;20059;-78
2022/10/14 09:41:14;;;;;;;39.97;19.77;;;13.00;99.90;;;;;;5097790;28;20042;-78
2022/10/14 09:44:14;;;;;;;40.55;19.33;;;13.30;99.90;;;;;;5083407;28;20032;-78
2022/10/14 09:46:40;;;;;;;41.78;18.63;;;13.40;99.90;;;;;;5074596;28;20036;-78
2022/10/14 09:49:22;;;;;;;36.28;18.75;;;13.50;99.90;;;;;;5077273;28;20055;-79
2022/10/14 09:51:48;;;;;;;31.35;17.05;;;13.60;99.90;;;;;;5082574;28;20032;-78
2022/10/14 09:54:33;;;;;;;32.42;18.95;;;13.60;99.90;;;;;;5073168;28;20066;-80
2022/10/14 09:57:04;;;;;;;;;;;13.70;99.90;;;;;;5053776;28;20045;-80
2022/10/14 09:59:31;;;;;;;34.83;19.17;;;13.20;99.90;;;;;;5081188;28;19920;-77
2022/10/14 10:02:00;;;;;;;36.92;20.33;;;13.60;99.90;;;;;;5087953;28;20105;-78
2022/10/14 10:04:45;;;;;;;39.40;20.75;;;13.50;99.90;;;;;;5099417;28;20034;-79
2022/10/14 10:07:26;;;;;;;;;;;13.90;99.90;;;;;;5081782;28;20020;-78
2022/10/14 10:10:01;;;;;;;41.47;22.52;;;13.70;99.90;;;;;;5097957;28;19930;-78
2022/10/14 10:12:33;;;;;;;38.55;19.63;;;13.80;99.90;;;;;;5076729;28;20029;-80
2022/10/14 10:15:03;;;;;;;32.88;19.65;;;14.00;99.90;;;;;;5094479;28;20039;-79
2022/10/14 10:17:34;;;;;;;32.53;18.92;;;13.90;99.90;;;;;;5079662;28;20226;-80
2022/10/14 10:20:12;;;;;;;29.40;16.88;;;14.10;99.90;;;;;;5102022;28;20065;-79
2022/10/14 10:22:37;;;;;;;30.42;17.95;;;13.70;99.90;;;;;;5099132;28;20036;-79
2022/10/14 10:25:03;;;;;;;27.35;15.18;;;13.90;99.90;;;;;;5093768;28;20323;-79
2022/10/14 10:27:35;;;;;;;33.45;18.90;;;14.10;99.90;;;;;;5101167;28;20034;-79
2022/10/14 10:30:31;;;;;;;30.38;17.15;;;13.80;99.90;;;;;;5091773;28;20381;-77
2022/10/14 10:33:53;;;;;;;25.85;14.90;;;14.00;99.90;;;;;;5083045;28;20093;-82
2022/10/14 10:36:29;;;;;;;29.30;15.85;;;13.20;99.90;;;;;;5098515;28;20076;-80
2022/10/14 10:39:18;;;;;;;25.67;14.45;;;13.80;99.90;;;;;;5096691;28;20051;-81
2022/10/14 10:42:11;;;;;;;32.60;18.15;;;14.10;99.90;;;;;;5079893;28;20043;-81
2022/10/14 10:44:52;;;;;;;25.60;15.15;;;13.80;99.90;;;;;;5084433;28;20202;-81
2022/10/14 10:47:31;;;;;;;31.88;16.48;;;13.80;99.90;;;;;;5098721;28;20046;-79
2022/10/14 10:50:00;;;;;;;32.33;18.08;;;14.20;99.90;;;;;;5085734;28;20024;-79
2022/10/14 10:53:00;;;;;;;25.80;15.00;;;14.00;99.90;;;;;;5082216;28;20214;-79
2022/10/14 10:55:53;;;;;;;31.13;16.75;;;13.90;99.90;;;;;;5082449;28;20342;-78
2022/10/14 10:58:40;;;;;;;29.55;15.93;;;14.20;99.90;;;;;;5098015;28;20024;-79
2022/10/14 11:01:15;;;;;;;28.65;16.15;;;14.30;99.90;;;;;;5097570;28;20088;-78
2022/10/14 11:03:47;;;;;;;26.48;14.27;;;14.00;99.90;;;;;;5082081;28;20032;-79
2022/10/14 11:13:04;;;;;;;32.90;15.65;;;14.20;99.90;;;;;;5045585;28;20326;-80
2022/10/14 11:15:48;;;;;;;27.92;14.88;;;14.40;99.90;;;;;;5088734;28;20051;-79
2022/10/14 11:18:46;;;;;;;25.50;13.63;;;14.30;99.90;;;;;;5095300;28;20269;-76
2022/10/14 11:21:45;;;;;;;21.92;11.38;;;14.00;99.90;;;;;;5082508;28;20247;-75
2022/10/14 11:24:38;;;;;;;21.25;12.48;;;14.20;99.90;;;;;;5082766;28;20028;-78
2022/10/14 11:27:46;;;;;;;22.83;12.85;;;13.70;99.90;;;;;;5097292;28;20050;-82
2022/10/14 11:30:19;;;;;;;24.90;12.70;;;13.70;99.90;;;;;;5077281;28;20210;-80
2022/10/14 11:32:58;;;;;;;26.42;12.77;;;13.90;99.90;;;;;;5081780;28;20059;-80
2022/10/14 11:35:39;;;;;;;22.25;11.38;;;13.80;99.90;;;;;;5084957;28;20210;-77
2022/10/14 11:38:27;;;;;;;21.88;11.88;;;14.40;99.90;;;;;;5083728;28;20110;-77
2022/10/14 11:41:21;;;;;;;19.95;11.00;;;13.60;99.90;;;;;;5095658;28;20228;-77
2022/10/14 11:44:12;;;;;;;23.90;13.25;;;13.70;99.90;;;;;;5089662;28;20027;-78
2022/10/14 11:46:44;;;;;;;23.98;11.93;;;13.60;99.90;;;;;;5100129;28;20050;-78
2022/10/14 11:49:21;;;;;;;21.23;11.68;;;13.60;99.90;;;;;;5073807;28;20044;-77
2022/10/14 11:52:10;;;;;;;22.95;12.77;;;13.70;99.90;;;;;;5082442;28;20222;-78
2022/10/14 11:54:43;;;;;;;24.42;12.18;;;14.50;99.90;;;;;;5091062;28;20047;-78
2022/10/14 11:57:34;;;;;;;21.80;11.45;;;14.20;99.90;;;;;;5098653;28;20075;-77
2022/10/14 12:00:04;;;;;;;23.10;13.27;;;13.60;99.90;;;;;;5084743;28;20056;-77
2022/10/14 12:02:39;;;;;;;26.75;12.98;;;14.30;99.90;;;;;;5076227;28;20035;-77
2022/10/14 12:05:48;;;;;;;20.15;11.23;;;14.10;99.90;;;;;;5098608;28;20024;-76
2022/10/14 12:08:29;;;;;;;17.45;9.77;;;14.50;99.90;;;;;;5068354;28;20027;-77
2022/10/14 12:11:34;;;;;;;21.73;12.07;;;13.60;99.90;;;;;;5084972;28;20032;-78
2022/10/14 12:14:21;;;;;;;22.88;12.20;;;13.70;99.90;;;;;;5081374;28;20052;-77
2022/10/14 12:16:47;;;;;;;25.70;12.88;;;14.40;99.90;;;;;;5080594;28;20219;-78
2022/10/14 12:19:21;;;;;;;26.00;13.52;;;13.50;99.90;;;;;;5078864;28;20036;-76
2022/10/14 12:22:50;;;;;;;22.30;12.25;;;14.20;99.90;;;;;;5075536;28;20101;-76
2022/10/14 12:25:13;;;;;;;28.13;12.82;;;14.70;99.90;;;;;;5095808;28;20050;-77
2022/10/14 12:27:39;;;;;;;28.23;13.70;;;14.00;99.90;;;;;;5085306;28;20031;-78
2022/10/14 12:30:33;;;;;;;22.75;11.75;;;14.40;99.90;;;;;;5084105;28;20108;-78
2022/10/14 12:33:05;;;;;;;31.67;15.32;;;13.70;99.90;;;;;;5089752;28;20020;-77
2022/10/14 12:35:59;;;;;;;23.35;13.85;;;14.80;99.90;;;;;;5096438;28;20043;-76
2022/10/14 12:38:28;;;;;;;26.83;14.30;;;13.70;99.90;;;;;;5086114;28;20090;-77
2022/10/14 12:41:16;;;;;;;23.73;13.45;;;14.40;99.90;;;;;;5086010;28;20099;-77
2022/10/14 12:43:56;;;;;;;25.30;14.45;;;14.80;99.90;;;;;;5088584;28;20044;-78
2022/10/14 12:46:22;;;;;;;27.75;14.45;;;14.00;99.90;;;;;;5088800;28;20115;-75
2022/10/14 12:48:50;;;;;;;27.75;15.50;;;14.70;99.90;;;;;;5080596;28;20028;-79
2022/10/14 12:51:22;;;;;;;31.38;16.20;;;13.80;99.90;;;;;;5089195;28;20047;-79
2022/10/14 12:53:57;;;;;;;28.55;13.82;;;14.80;99.90;;;;;;5086004;28;20032;-79
2022/10/14 12:56:54;;;;;;;31.25;16.10;;;14.50;99.90;;;;;;5086834;28;20051;-80
2022/10/14 12:59:30;;;;;;;34.63;16.27;;;13.70;99.90;;;;;;5072868;28;20033;-80
2022/10/14 13:02:00;;;;;;;28.58;15.50;;;14.70;99.90;;;;;;5086276;28;20020;-70